Time;durP1;ratioP1;P1;durP2;ratioP2;P2;SDS_P1;SDS_P2;PMS_P1;PMS_P2;Temp;Humidity;BMP_temperature;BMP_pressure;BME280_temperature;BME280_humidity;BME280_pressure;Samples;Min_cycle;Max_cycle;Signal;HPM_P1;HPM_P2
2023/06/24 00:01:38;;;;;;;0.80;0.77;;;;;;;15.56;78.92;98076.50;6170361;28;20238;-94
2023/06/24 00:04:40;;;;;;;2.20;0.97;;;;;;;15.71;75.53;98020.16;6174245;28;20234;-93
2023/06/24 00:07:46;;;;;;;2.03;1.00;;;;;;;14.91;76.06;97918.50;6158343;28;20229;-93
2023/06/24 00:10:49;;;;;;;1.17;1.07;;;;;;;15.12;75.21;97948.06;6143336;28;20273;-93
2023/06/24 00:13:51;;;;;;;1.40;1.00;;;;;;;15.82;75.77;98067.47;6167622;28;20222;-94
2023/06/24 00:16:54;;;;;;;1.57;0.83;;;;;;;15.10;77.36;97971.69;6176308;28;20222;-93
2023/06/24 00:19:56;;;;;;;3.30;1.17;;;;;;;15.83;76.69;98082.53;6196012;28;20256;-92
2023/06/24 00:22:59;;;;;;;1.47;0.97;;;;;;;14.63;79.07;97910.88;6173058;28;20245;-94
2023/06/24 00:26:02;;;;;;;2.27;1.20;;;;;;;15.11;79.65;97989.38;6200474;28;20240;-93
2023/06/24 00:29:04;;;;;;;2.07;1.30;;;;;;;14.93;74.86;97904.84;6191117;28;20230;-94
2023/06/24 00:32:07;;;;;;;1.40;1.10;;;;;;;15.30;78.07;97992.41;6183179;28;20257;-94
2023/06/24 00:35:12;;;;;;;1.30;1.10;;;;;;;15.77;78.00;98077.41;6186552;28;20258;-94
2023/06/24 00:38:14;;;;;;;1.43;1.20;;;;;;;15.78;76.26;98089.78;6180529;28;20233;-93
2023/06/24 00:41:20;;;;;;;0.93;0.90;;;;;;;16.13;75.40;98119.38;6179908;28;20242;-93
2023/06/24 00:44:23;;;;;;;2.73;1.37;;;;;;;14.86;78.58;97949.88;6157561;28;20233;-92
2023/06/24 00:47:26;;;;;;;1.43;1.33;;;;;;;15.48;79.54;98086.69;6170138;28;20229;-93
2023/06/24 00:50:29;;;;;;;3.40;1.20;;;;;;;15.04;81.59;98010.31;6175339;28;20233;-93
2023/06/24 00:53:31;;;;;;;1.70;1.50;;;;;;;15.36;79.36;98086.09;6165025;28;20233;-93
2023/06/24 00:56:42;;;;;;;1.50;1.23;;;;;;;15.42;77.87;98023.31;6159251;28;20225;-93
2023/06/24 00:59:47;;;;;;;3.27;1.30;;;;;;;14.69;78.41;97933.97;6170389;28;20234;-93
2023/06/24 01:02:50;;;;;;;1.63;1.40;;;;;;;15.46;80.79;98086.13;6189113;28;20218;-94
2023/06/24 01:05:54;;;;;;;2.97;1.30;;;;;;;14.81;81.57;97998.94;6141352;28;20284;-94
2023/06/24 01:09:00;;;;;;;2.23;1.40;;;;;;;15.24;81.07;98080.16;6154584;28;20711;-94
2023/06/24 01:12:02;;;;;;;2.23;1.50;;;;;;;15.67;79.98;98115.81;6154397;28;20230;-92
2023/06/24 01:15:08;;;;;;;1.50;1.40;;;;;;;15.33;83.69;98080.47;6156089;28;20221;-93
2023/06/24 01:18:34;;;;;;;2.63;1.80;;;;;;;15.68;81.00;98110.16;6138582;28;20229;-93
2023/06/24 01:22:01;;;;;;;5.07;2.13;;;;;;;15.20;80.54;98038.81;6163904;28;20237;-93
2023/06/24 01:25:40;;;;;;;1.87;1.70;;;;;;;15.74;79.62;98103.72;6155401;28;20290;-93
2023/06/24 01:29:08;;;;;;;2.00;1.80;;;;;;;15.70;79.79;98116.06;6203587;28;20234;-93
2023/06/24 01:32:38;;;;;;;2.50;2.00;;;;;;;15.13;81.76;98049.00;6187666;28;20572;-93
2023/06/24 01:35:43;;;;;;;1.80;1.70;;;;;;;15.36;83.13;98096.84;6156210;28;20259;-93
2023/06/24 01:38:55;;;;;;;1.97;1.87;;;;;;;14.16;82.11;97909.00;6154123;28;20225;-93
2023/06/24 01:42:13;;;;;;;3.40;1.73;;;;;;;14.72;81.66;98003.16;6168248;28;20229;-93
2023/06/24 01:45:24;;;;;;;1.57;1.47;;;;;;;15.30;83.54;98097.91;6170528;28;20226;-93
2023/06/24 01:48:32;;;;;;;2.03;1.83;;;;;;;14.62;81.78;97970.94;6173235;28;20229;-93
2023/06/24 01:51:37;;;;;;;3.10;1.53;;;;;;;15.35;83.12;98107.84;6157801;28;20622;-93
2023/06/24 01:54:41;;;;;;;1.53;1.43;;;;;;;15.03;81.43;98065.84;6162614;28;20233;-93
2023/06/24 01:57:46;;;;;;;3.87;1.70;;;;;;;14.08;79.83;97893.41;6150496;28;20237;-94
2023/06/24 02:00:49;;;;;;;1.67;1.40;;;;;;;15.29;80.53;98093.59;6146145;28;20230;-93
2023/06/24 02:03:54;;;;;;;1.50;1.40;;;;;;;15.33;79.96;98092.00;6158301;28;20295;-93
2023/06/24 02:07:04;;;;;;;1.63;1.53;;;;;;;15.61;85.01;98143.66;6151845;28;20237;-93
2023/06/24 02:10:08;;;;;;;2.10;1.40;;;;;;;14.88;85.99;98061.22;6149146;28;20245;-93
2023/06/24 02:13:12;;;;;;;1.47;1.37;;;;;;;14.87;86.42;98080.22;6166136;28;20337;-93
2023/06/24 02:16:16;;;;;;;1.70;1.37;;;;;;;14.20;83.50;97953.00;6171091;28;20321;-92
2023/06/24 02:19:20;;;;;;;1.40;1.30;;;;;;;14.06;84.48;97931.19;6140815;28;20320;-93
2023/06/24 02:22:23;;;;;;;1.37;1.27;;;;;;;15.57;83.29;98166.75;6162335;28;20225;-93
2023/06/24 02:25:27;;;;;;;1.57;1.47;;;;;;;15.04;85.77;98104.22;6169264;28;20600;-93
2023/06/24 02:28:33;;;;;;;1.37;1.27;;;;;;;15.23;84.94;98133.03;6161551;28;20731;-92
2023/06/24 02:31:36;;;;;;;3.90;1.50;;;;;;;15.53;83.37;98169.16;6164718;28;20230;-93
2023/06/24 02:34:39;;;;;;;2.37;1.50;;;;;;;15.26;83.80;98138.94;6152164;28;20241;-93
2023/06/24 02:37:42;;;;;;;1.83;1.70;;;;;;;15.24;85.75;98128.47;6150407;28;20225;-93
2023/06/24 02:40:47;;;;;;;1.60;1.50;;;;;;;14.26;85.73;97977.94;6150389;28;20241;-93
2023/06/24 02:43:49;;;;;;;1.93;1.67;;;;;;;15.40;82.90;98129.34;6158219;28;20292;-93
2023/06/24 02:46:53;;;;;;;3.70;1.73;;;;;;;15.30;83.47;98127.41;6162253;28;20268;-93
2023/06/24 02:49:57;;;;;;;1.50;1.40;;;;;;;15.28;83.88;98139.50;6154091;28;20288;-94
2023/06/24 02:53:01;;;;;;;1.80;1.70;;;;;;;15.14;84.70;98123.84;6159692;28;20260;-93
2023/06/24 02:56:09;;;;;;;1.50;1.40;;;;;;;15.29;84.72;98154.53;6157071;28;20237;-93
2023/06/24 02:59:14;;;;;;;2.17;1.60;;;;;;;14.20;84.40;98002.03;6175451;28;20232;-93
2023/06/24 03:02:17;;;;;;;1.80;1.60;;;;;;;15.14;83.68;98118.50;6148789;28;20236;-93
2023/06/24 03:05:19;;;;;;;1.40;1.30;;;;;;;14.29;84.87;97993.50;6171662;28;20361;-94
2023/06/24 03:08:24;;;;;;;1.87;1.30;;;;;;;15.09;83.63;98099.69;6174262;28;20225;-93
2023/06/24 03:11:27;;;;;;;1.40;1.30;;;;;;;15.09;85.57;98131.88;6156093;28;20284;-93
2023/06/24 03:14:32;;;;;;;1.10;1.00;;;;;;;14.88;85.90;98119.41;6144481;28;20595;-93
2023/06/24 03:17:34;;;;;;;1.07;1.07;;;;;;;14.54;86.34;98070.66;6169352;28;20226;-93
2023/06/24 03:20:38;;;;;;;1.13;1.03;;;;;;;15.35;86.21;98194.56;6157184;28;20230;-93
2023/06/24 03:23:45;;;;;;;1.73;1.30;;;;;;;15.37;86.14;98194.28;6157493;28;20373;-93
2023/06/24 03:26:55;;;;;;;1.43;1.10;;;;;;;14.92;87.06;98147.31;6156664;28;20310;-94
2023/06/24 03:30:02;;;;;;;1.27;1.17;;;;;;;14.11;86.89;98032.22;6167456;28;20221;-91
2023/06/24 03:33:07;;;;;;;1.10;0.80;;;;;;;15.34;86.67;98189.47;6177023;28;20214;-93
2023/06/24 03:36:11;;;;;;;0.90;0.90;;;;;;;15.08;86.63;98154.41;6158691;28;20206;-93
2023/06/24 03:39:13;;;;;;;1.03;0.80;;;;;;;15.04;86.79;98155.19;6163543;28;20245;-94
2023/06/24 03:42:19;;;;;;;0.70;0.70;;;;;;;15.27;87.23;98195.06;6187072;28;20222;-93
2023/06/24 03:45:21;;;;;;;0.83;0.80;;;;;;;15.28;87.85;98193.19;6171050;28;20242;-94
2023/06/24 03:48:23;;;;;;;0.60;0.60;;;;;;;15.27;88.46;98189.69;6172530;28;20390;-93
2023/06/24 03:51:26;;;;;;;0.60;0.60;;;;;;;15.23;88.81;98175.97;6161447;28;20225;-93
2023/06/24 03:54:28;;;;;;;0.70;0.70;;;;;;;14.79;89.15;98137.84;6157331;28;20272;-93
2023/06/24 03:57:31;;;;;;;0.70;0.70;;;;;;;14.95;89.62;98157.53;6163313;28;20301;-93
2023/06/24 04:00:33;;;;;;;0.50;0.50;;;;;;;14.64;91.57;98132.38;6137944;28;20291;-93
2023/06/24 04:03:35;;;;;;;0.50;0.50;;;;;;;15.09;89.28;98201.66;6187993;28;20234;-94
2023/06/24 04:06:38;;;;;;;0.50;0.50;;;;;;;14.00;89.04;98049.28;6169496;28;20728;-93
2023/06/24 04:09:40;;;;;;;1.27;0.50;;;;;;;14.59;91.63;98159.97;6161435;28;20230;-94
2023/06/24 04:12:42;;;;;;;1.33;0.60;;;;;;;14.56;91.26;98143.56;6157113;28;20233;-93
2023/06/24 04:15:45;;;;;;;0.60;0.60;;;;;;;14.53;91.59;98136.88;6187683;28;20233;-93
2023/06/24 04:18:47;;;;;;;0.80;0.80;;;;;;;14.05;91.62;98071.56;6159847;28;20782;-94
2023/06/24 04:21:49;;;;;;;0.50;0.50;;;;;;;13.72;90.77;98004.84;6168264;28;20244;-94
2023/06/24 04:24:52;;;;;;;1.10;0.60;;;;;;;14.51;92.28;98146.22;6169516;28;20317;-95
2023/06/24 04:27:54;;;;;;;0.63;0.53;;;;;;;13.77;91.08;98008.38;6143865;28;20789;-95
2023/06/24 04:30:56;;;;;;;1.13;0.70;;;;;;;14.63;89.45;98122.69;6155753;28;20775;-94
2023/06/24 04:33:59;;;;;;;0.50;0.50;;;;;;;15.02;90.61;98209.09;6162086;28;20238;-92
2023/06/24 04:37:01;;;;;;;0.50;0.50;;;;;;;14.79;89.77;98153.16;6160399;28;20279;-94
2023/06/24 04:40:03;;;;;;;0.73;0.40;;;;;;;14.50;90.59;98144.59;6160683;28;20234;-94
2023/06/24 04:43:06;;;;;;;0.40;0.40;;;;;;;15.11;89.50;98207.56;6161756;28;20283;-94
2023/06/24 04:46:09;;;;;;;0.40;0.40;;;;;;;13.34;89.12;97937.81;6141097;28;20234;-94
2023/06/24 04:49:11;;;;;;;1.13;0.60;;;;;;;15.14;90.07;98219.66;6155442;28;20638;-94
2023/06/24 04:52:15;;;;;;;0.50;0.40;;;;;;;15.05;90.22;98232.75;6158982;28;20242;-94
2023/06/24 04:55:17;;;;;;;0.47;0.37;;;;;;;14.63;91.05;98165.59;6151710;28;20592;-94
2023/06/24 04:58:19;;;;;;;1.07;0.70;;;;;;;15.01;91.60;98238.88;6191522;28;20268;-94
2023/06/24 05:01:22;;;;;;;0.40;0.40;;;;;;;15.06;92.18;98234.34;6167393;28;20230;-88
2023/06/24 05:04:25;;;;;;;0.40;0.40;;;;;;;14.86;91.09;98207.38;6155711;28;20245;-87
2023/06/24 05:07:27;;;;;;;0.33;0.33;;;;;;;14.40;90.16;98113.13;6172170;28;20222;-88
2023/06/24 05:10:29;;;;;;;0.50;0.50;;;;;;;14.30;90.33;98099.66;6154433;28;20275;-88
2023/06/24 05:13:32;;;;;;;0.53;0.40;;;;;;;15.19;91.22;98228.56;6137804;28;20225;-88
2023/06/24 05:16:34;;;;;;;0.77;0.70;;;;;;;14.96;90.50;98180.63;6161778;28;20236;-88
2023/06/24 05:19:36;;;;;;;0.30;0.30;;;;;;;15.38;91.18;98226.25;6192251;28;20233;-87
2023/06/24 05:22:38;;;;;;;0.40;0.40;;;;;;;14.23;88.91;98030.16;6168235;28;20230;-87
2023/06/24 05:25:41;;;;;;;0.40;0.40;;;;;;;15.20;88.00;98189.09;6173297;28;20242;-87
2023/06/24 05:28:43;;;;;;;0.30;0.30;;;;;;;15.56;85.63;98243.00;6177743;28;20240;-88
2023/06/24 05:31:46;;;;;;;0.40;0.40;;;;;;;14.91;86.98;98161.81;6172103;28;20214;-88
2023/06/24 05:34:48;;;;;;;0.90;0.50;;;;;;;15.56;86.52;98285.97;6216122;28;20253;-88
2023/06/24 05:37:50;;;;;;;0.30;0.30;;;;;;;15.38;86.92;98263.03;6184933;28;20249;-88
2023/06/24 05:40:52;;;;;;;0.60;0.43;;;;;;;15.10;86.83;98203.25;6187173;28;20238;-88
2023/06/24 05:44:03;;;;;;;0.40;0.40;;;;;;;15.65;86.29;98276.38;6185491;28;20209;-88
2023/06/24 05:47:05;;;;;;;0.30;0.30;;;;;;;15.00;87.67;98229.22;6186055;28;20210;-88
2023/06/24 05:50:08;;;;;;;0.50;0.50;;;;;;;15.09;89.65;98265.25;6207775;28;20226;-88
2023/06/24 05:53:10;;;;;;;0.40;0.40;;;;;;;15.17;89.65;98287.06;6160800;28;20221;-88
2023/06/24 05:56:12;;;;;;;0.60;0.60;;;;;;;14.11;89.79;98131.34;6158929;28;20713;-87
2023/06/24 05:59:14;;;;;;;1.03;0.57;;;;;;;14.79;90.77;98255.06;6155952;28;20232;-88
2023/06/24 06:02:16;;;;;;;0.60;0.60;;;;;;;15.01;91.16;98290.66;6151529;28;20222;-87
2023/06/24 06:05:18;;;;;;;0.97;0.40;;;;;;;14.73;86.57;98219.34;6134934;28;20839;-87
2023/06/24 06:08:21;;;;;;;0.40;0.40;;;;;;;13.72;88.50;98082.47;6152617;28;20240;-86
2023/06/24 06:11:23;;;;;;;0.30;0.30;;;;;;;14.76;90.38;98298.47;6153481;28;20617;-87
2023/06/24 06:14:25;;;;;;;0.40;0.40;;;;;;;13.73;90.85;98145.69;6151939;28;20225;-94
2023/06/24 06:17:27;;;;;;;0.47;0.47;;;;;;;14.68;91.89;98315.84;6166578;28;20260;-87
2023/06/24 06:20:29;;;;;;;0.73;0.50;;;;;;;14.89;92.60;98349.03;6166131;28;20236;-87
2023/06/24 06:23:31;;;;;;;0.30;0.30;;;;;;;14.89;93.00;98352.53;6152735;28;20371;-86
2023/06/24 06:26:34;;;;;;;0.40;0.40;;;;;;;14.78;93.17;98315.13;6153812;28;20240;-87
2023/06/24 06:29:36;;;;;;;0.60;0.50;;;;;;;13.76;94.56;98146.00;6152506;28;20284;-87
2023/06/24 06:32:38;;;;;;;0.50;0.50;;;;;;;14.78;93.89;98307.06;6176820;28;20665;-88
2023/06/24 06:35:41;;;;;;;0.43;0.40;;;;;;;14.61;92.46;98272.31;6152055;28;20675;-86
2023/06/24 06:38:52;;;;;;;0.40;0.40;;;;;;;14.44;92.34;98243.72;6135918;28;20321;-84
2023/06/24 06:41:54;;;;;;;0.40;0.40;;;;;;;14.68;93.02;98281.00;6170725;28;20631;-88
2023/06/24 06:44:58;;;;;;;0.40;0.40;;;;;;;15.07;91.48;98337.94;6156520;28;20759;-84
2023/06/24 06:48:02;;;;;;;0.30;0.30;;;;;;;14.77;91.73;98308.13;6134613;28;20722;-88
2023/06/24 06:51:05;;;;;;;0.83;0.47;;;;;;;14.80;92.66;98326.41;6198121;28;20238;-89
2023/06/24 06:54:08;;;;;;;0.40;0.40;;;;;;;14.92;92.50;98348.53;6153753;28;20693;-86
2023/06/24 06:57:10;;;;;;;0.53;0.43;;;;;;;15.05;92.27;98356.19;6143071;28;20221;-88
2023/06/24 07:00:12;;;;;;;0.40;0.40;;;;;;;15.06;92.71;98357.78;6178831;28;20735;-85
2023/06/24 07:03:14;;;;;;;0.40;0.40;;;;;;;14.80;93.33;98331.78;6153003;28;20236;-85
2023/06/24 07:06:20;;;;;;;0.37;0.37;;;;;;;14.86;91.92;98328.09;6153369;28;20709;-85
2023/06/24 07:09:22;;;;;;;0.40;0.40;;;;;;;15.17;90.25;98372.09;6141216;28;20719;-86
2023/06/24 07:12:24;;;;;;;0.33;0.33;;;;;;;14.61;90.65;98289.22;6153298;28;20304;-86
2023/06/24 07:15:27;;;;;;;0.67;0.63;;;;;;;14.80;92.41;98334.47;6155824;28;20233;-87
2023/06/24 07:18:32;;;;;;;0.50;0.50;;;;;;;14.65;91.72;98298.38;6153076;28;20237;-86
2023/06/24 07:21:34;;;;;;;1.43;0.67;;;;;;;14.68;92.89;98316.66;6185488;28;20240;-86
2023/06/24 07:24:37;;;;;;;0.40;0.40;;;;;;;14.89;92.30;98341.00;6139531;28;20266;-88
2023/06/24 07:27:39;;;;;;;0.70;0.70;;;;;;;14.47;93.94;98304.03;6158575;28;20225;-87
2023/06/24 07:30:41;;;;;;;0.50;0.50;;;;;;;14.02;92.19;98223.94;6170473;28;20723;-84
2023/06/24 07:33:44;;;;;;;0.50;0.50;;;;;;;14.91;93.13;98371.06;6171075;28;20237;-91
2023/06/24 07:36:46;;;;;;;0.60;0.60;;;;;;;14.95;91.14;98359.56;6138603;28;20230;-82
2023/06/24 07:39:49;;;;;;;0.70;0.70;;;;;;;14.90;92.07;98364.06;6155680;28;20718;-84
2023/06/24 07:42:54;;;;;;;1.47;0.67;;;;;;;14.74;91.64;98348.91;6157320;28;20724;-84
2023/06/24 07:45:56;;;;;;;0.83;0.77;;;;;;;14.31;91.17;98278.94;6159359;28;20707;-92
2023/06/24 07:48:59;;;;;;;0.50;0.50;;;;;;;14.75;92.41;98371.97;6189065;28;20233;-84
2023/06/24 07:52:02;;;;;;;1.10;0.60;;;;;;;14.80;91.16;98343.31;6159123;28;20790;-82
2023/06/24 07:55:07;;;;;;;0.47;0.43;;;;;;;15.02;93.08;98380.81;6157939;28;20230;-82
2023/06/24 07:58:12;;;;;;;1.67;0.70;;;;;;;15.25;90.23;98378.91;6154027;28;20875;-84
2023/06/24 08:01:14;;;;;;;1.27;0.93;;;;;;;15.19;90.21;98394.16;6173849;28;20249;-83
2023/06/24 08:04:16;;;;;;;1.20;1.10;;;;;;;15.25;88.15;98389.63;6174134;28;20711;-82
2023/06/24 08:07:18;;;;;;;1.00;0.90;;;;;;;15.21;87.97;98392.00;6189090;28;20234;-82
2023/06/24 08:10:21;;;;;;;1.60;1.50;;;;;;;14.42;88.38;98274.50;6170876;28;20228;-82
2023/06/24 08:13:23;;;;;;;1.70;1.30;;;;;;;14.88;87.01;98342.88;6146452;28;20269;-86
2023/06/24 08:16:25;;;;;;;1.77;1.50;;;;;;;15.07;87.28;98370.13;6154835;28;20328;-89
2023/06/24 08:19:27;;;;;;;1.87;1.77;;;;;;;15.28;86.80;98410.63;6160071;28;20695;-85
2023/06/24 08:22:30;;;;;;;1.90;1.80;;;;;;;14.99;87.93;98397.44;6156284;28;20673;-84
2023/06/24 08:25:32;;;;;;;2.30;2.10;;;;;;;15.12;88.87;98413.16;6154221;28;20733;-85
2023/06/24 08:28:35;;;;;;;1.80;1.70;;;;;;;15.05;87.90;98393.75;6167583;28;20241;-84
2023/06/24 08:31:37;;;;;;;2.00;1.83;;;;;;;15.23;85.70;98398.75;6171704;28;20233;-84
2023/06/24 08:34:40;;;;;;;1.90;1.80;;;;;;;15.09;88.09;98396.75;6170094;28;20321;-84
2023/06/24 08:37:42;;;;;;;2.13;1.93;;;;;;;15.32;87.09;98417.91;6157234;28;20349;-84
2023/06/24 08:40:46;;;;;;;1.63;1.53;;;;;;;14.96;87.75;98357.69;6168420;28;20233;-85
2023/06/24 08:43:48;;;;;;;1.30;1.20;;;;;;;15.23;86.48;98406.81;6160020;28;20288;-84
2023/06/24 08:46:50;;;;;;;2.00;1.80;;;;;;;14.87;86.46;98340.44;6165418;28;20252;-84
2023/06/24 08:50:01;;;;;;;1.60;1.50;;;;;;;15.44;86.42;98418.53;6174123;28;20770;-83
2023/06/24 08:53:08;;;;;;;1.50;1.40;;;;;;;15.07;86.85;98383.56;6157077;28;20917;-83
2023/06/24 08:56:11;;;;;;;1.30;1.20;;;;;;;15.42;87.28;98427.94;6180299;28;20237;-83
2023/06/24 08:59:19;;;;;;;1.30;1.20;;;;;;;15.07;85.76;98339.81;6157277;28;20623;-83
2023/06/24 09:02:21;;;;;;;1.30;1.20;;;;;;;15.14;87.20;98383.38;6158144;28;20674;-83
2023/06/24 09:05:24;;;;;;;1.67;1.57;;;;;;;15.17;88.28;98404.31;6157090;28;20637;-83
2023/06/24 09:08:26;;;;;;;1.50;1.40;;;;;;;15.06;86.56;98359.66;6176309;28;20635;-83
2023/06/24 09:11:28;;;;;;;2.37;1.47;;;;;;;15.44;88.25;98434.66;6198786;28;20236;-83
2023/06/24 09:14:31;;;;;;;1.53;1.43;;;;;;;15.49;87.08;98423.97;6220659;28;20317;-84
2023/06/24 09:17:43;;;;;;;1.50;1.40;;;;;;;15.42;84.40;98377.72;6196083;28;20285;-83
2023/06/24 09:20:49;;;;;;;1.80;1.70;;;;;;;15.27;85.06;98391.00;6204746;28;20288;-83
2023/06/24 09:23:56;;;;;;;1.80;1.70;;;;;;;15.64;85.86;98435.94;6176271;28;20245;-84
2023/06/24 09:26:58;;;;;;;2.67;1.80;;;;;;;15.36;85.63;98394.03;6206060;28;20238;-83
2023/06/24 09:30:17;;;;;;;2.07;1.87;;;;;;;14.79;87.09;98333.66;6159518;28;20739;-83
2023/06/24 09:33:22;;;;;;;2.10;2.00;;;;;;;14.43;85.00;98265.38;6169755;28;20547;-84
2023/06/24 09:36:24;;;;;;;2.13;1.93;;;;;;;15.34;85.99;98405.03;6169768;28;20238;-83
2023/06/24 09:39:38;;;;;;;1.73;1.63;;;;;;;15.46;88.19;98445.94;6184679;28;20238;-83
2023/06/24 09:42:56;;;;;;;2.10;1.73;;;;;;;15.62;87.39;98436.16;6191014;28;20237;-83
2023/06/24 09:46:00;;;;;;;2.30;1.77;;;;;;;15.38;87.33;98405.34;6185422;28;20253;-83
2023/06/24 09:49:06;;;;;;;2.63;1.60;;;;;;;15.57;87.64;98395.84;6170284;28;20226;-84
2023/06/24 09:52:15;;;;;;;1.80;1.70;;;;;;;15.80;86.99;98428.81;6185861;28;20706;-84
2023/06/24 09:55:18;;;;;;;1.40;1.30;;;;;;;15.80;84.23;98410.00;6152097;28;20257;-84
2023/06/24 09:58:21;;;;;;;1.97;1.77;;;;;;;15.41;84.38;98368.03;6166474;28;20612;-83
2023/06/24 10:01:23;;;;;;;2.30;2.10;;;;;;;15.46;86.22;98404.84;6181377;28;20377;-83
2023/06/24 10:04:28;;;;;;;2.30;2.10;;;;;;;15.23;87.43;98379.97;6150904;28;20246;-83
2023/06/24 10:07:31;;;;;;;2.77;2.43;;;;;;;15.55;89.01;98448.97;6156535;28;20234;-84
2023/06/24 10:10:34;;;;;;;2.90;2.57;;;;;;;15.22;87.39;98361.41;6153817;28;20593;-83
2023/06/24 10:13:37;;;;;;;3.00;2.70;;;;;;;14.77;87.77;98313.50;6162780;28;20221;-83
2023/06/24 10:16:40;;;;;;;3.13;2.93;;;;;;;15.41;86.46;98416.34;6152210;28;20582;-84
2023/06/24 10:19:44;;;;;;;3.07;2.87;;;;;;;15.08;87.84;98370.97;6162719;28;20245;-84
2023/06/24 10:22:46;;;;;;;2.93;2.73;;;;;;;15.07;87.62;98375.50;6153868;28;20770;-83
2023/06/24 10:25:49;;;;;;;3.43;3.03;;;;;;;15.22;87.12;98418.63;6170128;28;20237;-84
2023/06/24 10:29:07;;;;;;;3.57;2.63;;;;;;;15.52;87.27;98454.03;6169922;28;20358;-84
2023/06/24 10:32:10;;;;;;;3.30;3.00;;;;;;;15.38;86.83;98454.47;6161760;28;20320;-84
2023/06/24 10:35:24;;;;;;;3.50;3.20;;;;;;;14.94;88.24;98387.47;6154355;28;20593;-83
2023/06/24 10:38:27;;;;;;;3.30;3.00;;;;;;;15.39;87.62;98436.47;6153367;28;20647;-83
2023/06/24 10:41:29;;;;;;;3.77;2.67;;;;;;;15.46;87.48;98437.06;6162377;28;20250;-83
2023/06/24 10:44:45;;;;;;;3.90;3.40;;;;;;;15.17;88.58;98394.41;6182584;28;20737;-83
2023/06/24 10:47:52;;;;;;;3.13;2.77;;;;;;;15.49;87.10;98439.25;6152874;28;20600;-84
2023/06/24 10:50:55;;;;;;;3.40;3.10;;;;;;;15.54;87.93;98431.25;6142399;28;20601;-83
2023/06/24 10:53:58;;;;;;;3.47;2.80;;;;;;;15.65;87.89;98424.91;6153989;28;20229;-83
2023/06/24 10:57:00;;;;;;;3.90;2.83;;;;;;;15.26;88.47;98346.44;6153667;28;20248;-83
2023/06/24 11:00:06;;;;;;;2.67;2.47;;;;;;;15.98;86.30;98412.28;6165294;28;20241;-83
2023/06/24 11:03:13;;;;;;;4.20;2.80;;;;;;;16.07;86.87;98418.78;6162408;28;20272;-83
2023/06/24 11:06:16;;;;;;;2.63;2.43;;;;;;;16.13;84.41;98401.63;6142881;28;20281;-83
2023/06/24 11:09:18;;;;;;;3.00;2.50;;;;;;;15.81;85.57;98384.75;6155064;28;20222;-83
2023/06/24 11:12:26;;;;;;;2.67;2.47;;;;;;;15.06;84.62;98258.50;6166956;28;20679;-84
2023/06/24 11:15:32;;;;;;;2.60;2.40;;;;;;;15.77;84.42;98346.06;6153479;28;20234;-83
2023/06/24 11:18:38;;;;;;;2.90;2.70;;;;;;;16.12;83.51;98402.69;6157928;28;20691;-83
2023/06/24 11:21:40;;;;;;;3.30;3.00;;;;;;;15.98;84.04;98391.59;6158315;28;20229;-83
2023/06/24 11:24:42;;;;;;;3.80;2.97;;;;;;;15.83;85.32;98371.88;6190853;28;20918;-83
2023/06/24 11:27:45;;;;;;;3.60;3.30;;;;;;;15.97;84.54;98410.66;6160536;28;20329;-83
2023/06/24 11:30:48;;;;;;;4.47;4.07;;;;;;;14.81;83.20;98212.69;6189305;28;20229;-84
2023/06/24 11:33:50;;;;;;;4.40;4.00;;;;;;;15.60;84.51;98346.16;6158188;28;20241;-83
2023/06/24 11:36:52;;;;;;;6.40;5.03;;;;;;;15.59;84.46;98339.97;6165883;28;20285;-87
2023/06/24 11:40:04;;;;;;;5.47;4.90;;;;;;;15.55;85.30;98343.44;6164278;28;20243;-88
2023/06/24 11:43:07;;;;;;;5.57;4.97;;;;;;;15.85;85.55;98392.03;6160310;28;20325;-87
2023/06/24 11:46:09;;;;;;;5.53;5.03;;;;;;;15.62;84.46;98393.19;6157188;28;20321;-87
2023/06/24 11:49:14;;;;;;;5.50;4.87;;;;;;;15.43;84.74;98367.78;6158167;28;20229;-87
2023/06/24 11:52:16;;;;;;;6.40;5.57;;;;;;;15.53;85.27;98381.31;6175264;28;20236;-87
2023/06/24 11:55:24;;;;;;;5.33;4.90;;;;;;;15.69;84.52;98404.53;6159879;28;20796;-87
2023/06/24 11:58:26;;;;;;;8.43;5.70;;;;;;;15.68;85.74;98405.63;6174081;28;20245;-87
2023/06/24 12:01:37;;;;;;;5.47;4.97;;;;;;;15.16;84.58;98309.56;6175763;28;20237;-87
2023/06/24 12:04:43;;;;;;;6.00;4.90;;;;;;;15.12;85.64;98308.50;6191478;28;20245;-87
2023/06/24 12:07:46;;;;;;;6.37;5.57;;;;;;;15.59;86.65;98382.94;6175215;28;20241;-87
2023/06/24 12:10:48;;;;;;;6.47;5.30;;;;;;;15.52;86.05;98371.63;6155781;28;20325;-87
2023/06/24 12:13:51;;;;;;;6.17;5.57;;;;;;;15.27;85.29;98317.72;6163825;28;20229;-88
2023/06/24 12:16:53;;;;;;;7.37;6.37;;;;;;;15.55;84.18;98373.78;6159722;28;20236;-88
2023/06/24 12:19:55;;;;;;;7.10;6.40;;;;;;;15.28;85.03;98327.41;6171600;28;20807;-87
2023/06/24 12:22:58;;;;;;;7.63;6.83;;;;;;;15.69;85.23;98407.22;6189514;28;20232;-87
2023/06/24 12:26:00;;;;;;;9.07;6.37;;;;;;;15.50;84.67;98381.81;6159501;28;20240;-88
2023/06/24 12:29:02;;;;;;;7.97;6.30;;;;;;;15.51;85.65;98372.66;6158765;28;20746;-88
2023/06/24 12:32:05;;;;;;;7.83;6.97;;;;;;;15.54;84.94;98392.84;6174112;28;20233;-88
2023/06/24 12:35:09;;;;;;;8.17;7.37;;;;;;;15.65;83.99;98408.00;6155051;28;20237;-89
2023/06/24 12:38:11;;;;;;;6.97;6.33;;;;;;;15.68;83.49;98426.31;6190322;28;20233;-89
2023/06/24 12:41:13;;;;;;;7.70;6.93;;;;;;;15.82;82.77;98429.38;6157302;28;20241;-89
2023/06/24 12:44:15;;;;;;;7.83;7.10;;;;;;;15.55;84.47;98400.63;6158553;28;20234;-89
2023/06/24 12:47:18;;;;;;;7.73;6.93;;;;;;;15.43;83.49;98365.09;6158152;28;20854;-89
2023/06/24 12:50:20;;;;;;;6.97;6.27;;;;;;;15.46;83.86;98388.75;6173967;28;20260;-89
2023/06/24 12:53:22;;;;;;;8.23;7.43;;;;;;;15.58;84.24;98413.56;6170907;28;20260;-89
2023/06/24 12:56:24;;;;;;;8.23;7.10;;;;;;;15.45;84.34;98408.59;6157658;28;20774;-89
2023/06/24 12:59:29;;;;;;;9.07;7.07;;;;;;;15.37;84.23;98382.22;6158228;28;20233;-89
2023/06/24 13:02:32;;;;;;;8.10;7.40;;;;;;;15.67;84.10;98430.88;6157179;28;20441;-90
2023/06/24 13:05:34;;;;;;;8.13;7.43;;;;;;;15.62;84.49;98427.31;6140693;28;20225;-88
2023/06/24 13:08:37;;;;;;;8.13;7.37;;;;;;;15.66;84.51;98417.66;6158102;28;20230;-88
2023/06/24 13:11:40;;;;;;;10.13;7.20;;;;;;;15.68;84.56;98410.19;6166206;28;20225;-88
2023/06/24 13:14:42;;;;;;;8.37;7.53;;;;;;;15.45;84.37;98379.06;6157622;28;20236;-88
2023/06/24 13:17:44;;;;;;;7.80;6.77;;;;;;;15.71;84.35;98415.03;6163929;28;20234;-88
2023/06/24 13:20:47;;;;;;;7.70;6.87;;;;;;;15.29;86.09;98329.00;6159992;28;20713;-88
2023/06/24 13:23:49;;;;;;;8.53;7.73;;;;;;;16.09;82.49;98413.97;6174862;28;20233;-88
2023/06/24 13:26:52;;;;;;;6.53;5.97;;;;;;;16.11;82.79;98425.28;6158141;28;20238;-89
2023/06/24 13:29:54;;;;;;;8.17;7.47;;;;;;;15.99;82.89;98381.66;6159664;28;20786;-88
2023/06/24 13:32:56;;;;;;;7.67;6.87;;;;;;;16.01;82.02;98398.34;6159159;28;20238;-88
2023/06/24 13:35:58;;;;;;;7.47;6.77;;;;;;;15.32;81.47;98294.41;6156757;28;20230;-87
2023/06/24 13:39:05;;;;;;;7.67;6.10;;;;;;;16.01;83.90;98406.41;6166171;28;20237;-88
2023/06/24 13:42:08;;;;;;;7.20;6.40;;;;;;;15.87;82.52;98384.53;6154508;28;20233;-88
2023/06/24 13:45:10;;;;;;;8.97;7.20;;;;;;;15.73;83.46;98351.94;6208395;28;20277;-88
2023/06/24 13:48:12;;;;;;;11.23;7.30;;;;;;;15.35;81.64;98275.09;6183504;28;20222;-87
2023/06/24 13:51:16;;;;;;;7.60;6.90;;;;;;;15.80;82.30;98354.38;6158077;28;20233;-88
2023/06/24 13:54:18;;;;;;;7.83;7.03;;;;;;;16.12;81.58;98377.69;6163806;28;20221;-87
2023/06/24 13:57:20;;;;;;;8.03;6.80;;;;;;;16.15;81.79;98374.47;6166906;28;20210;-88
2023/06/24 14:00:22;;;;;;;7.60;6.83;;;;;;;16.29;81.95;98386.38;6196843;28;20301;-87
2023/06/24 14:03:24;;;;;;;6.90;6.30;;;;;;;15.93;82.41;98337.81;6204973;28;20225;-88
2023/06/24 14:06:27;;;;;;;7.20;6.50;;;;;;;16.05;82.59;98348.34;6191506;28;20289;-87
2023/06/24 14:09:29;;;;;;;8.03;6.80;;;;;;;16.37;80.18;98369.75;6224005;28;20217;-87
2023/06/24 14:12:31;;;;;;;7.30;6.60;;;;;;;16.15;82.01;98340.34;6178165;28;20257;-87
2023/06/24 14:15:33;;;;;;;6.83;6.17;;;;;;;15.27;81.84;98204.97;6163950;28;20243;-87
2023/06/24 14:18:39;;;;;;;7.03;6.40;;;;;;;16.25;81.32;98361.91;6177722;28;20243;-87
2023/06/24 14:21:41;;;;;;;7.20;6.50;;;;;;;16.45;81.28;98392.63;6170642;28;20600;-88
2023/06/24 14:24:44;;;;;;;7.60;5.97;;;;;;;16.34;81.08;98361.41;6151395;28;20305;-88
2023/06/24 14:27:46;;;;;;;6.17;5.57;;;;;;;16.34;81.18;98366.78;6171164;28;20260;-87